Terminal Aerodrome Forecast
Issued by NWS

Home | Current Version | Previous Version | Text Only | Print | Product List | Glossary On
Versions: 1 2 3 4 5 6 7 8 9 10 11 12 13 14 15
000
FTAK31 PAJN 240200 AAA
TAFAGY
TAF AMD
PAGY 240206Z 2402/2424 21015KT P6SM VCSH OVC080
     FM240600 21010KT P6SM VCSH SCT025 OVC050
     FM240900 21008KT P6SM VCSH OVC040
     FM241500 21006KT P6SM -RA SCT020 OVC040
     FM242100 21011G18KT P6SM -RA BKN040 OVC080
      AMD LTD TO CLD VIS AND WIND=

USA.gov is the U.S. government's official web portal to all federal, state and local government web resources and services.